createdAt,value
2018-12-10T02:48:15.934Z,100.15
2018-12-10T02:51:04.724Z,97.30
2018-12-10T02:53:53.362Z,97.15
2018-12-10T02:56:40.761Z,96.55
2018-12-10T02:59:29.092Z,99.22
2018-12-10T03:02:19.217Z,97.80
2018-12-10T03:05:07.352Z,93.47
2018-12-10T03:07:55.551Z,95.47
2018-12-10T03:10:43.598Z,96.22
2018-12-10T03:13:31.608Z,95.17
2018-12-10T03:16:20.594Z,94.85
2018-12-10T03:19:08.894Z,96.75
2018-12-10T03:21:56.717Z,90.77
2018-12-10T03:24:45.599Z,94.07
2018-12-10T03:27:35.141Z,95.45
2018-12-10T03:30:23.473Z,94.15
2018-12-10T03:33:11.495Z,92.33
2018-12-10T03:35:59.668Z,89.47
2018-12-10T03:38:47.804Z,93.72
2018-12-10T03:41:35.455Z,95.90
2018-12-10T03:44:23.484Z,96.53
2018-12-10T03:47:11.249Z,105.45
2018-12-10T03:49:59.481Z,104.03
2018-12-10T03:52:47.719Z,106.00
2018-12-10T03:55:35.895Z,113.17
2018-12-10T03:58:23.587Z,110.70
2018-12-10T04:01:12.015Z,114.50
2018-12-10T04:04:00.569Z,109.12
2018-12-10T04:06:48.281Z,119.82
2018-12-10T04:09:35.935Z,115.97
2018-12-10T04:12:24.766Z,120.87
2018-12-10T04:15:13.651Z,110.55
2018-12-10T04:18:01.978Z,115.52
2018-12-10T04:20:50.058Z,117.80
2018-12-10T04:23:37.988Z,119.53
2018-12-10T04:26:26.966Z,115.52
2018-12-10T04:29:15.578Z,111.12
2018-12-10T04:32:03.699Z,113.37
2018-12-10T04:34:51.782Z,111.85
2018-12-10T04:37:39.986Z,113.83
2018-12-10T04:40:28.587Z,114.60
2018-12-10T04:43:16.451Z,112.12
2018-12-10T04:46:04.350Z,113.28
2018-12-10T04:48:52.215Z,107.52
2018-12-10T04:51:41.268Z,110.45
2018-12-10T04:54:30.257Z,108.80
2018-12-10T04:57:18.316Z,105.85
2018-12-10T05:00:08.443Z,102.40
2018-12-10T05:02:57.365Z,104.43
2018-12-10T05:05:46.313Z,101.55
2018-12-10T05:08:35.502Z,99.65
2018-12-10T05:11:24.073Z,99.47
2018-12-10T05:14:12.833Z,98.97
2018-12-10T05:17:01.559Z,101.80
2018-12-10T05:19:50.385Z,101.35
2018-12-10T05:22:39.677Z,100.20
2018-12-10T05:25:34.587Z,99.10
2018-12-10T05:28:30.542Z,103.27
2018-12-10T05:31:19.765Z,105.50
2018-12-10T05:34:11.600Z,107.07
2018-12-10T05:37:00.363Z,102.25
2018-12-10T05:39:54.109Z,103.90
2018-12-10T05:42:43.283Z,99.20
2018-12-10T05:45:31.895Z,100.00
2018-12-10T05:48:23.538Z,103.90
2018-12-10T05:51:16.154Z,100.35
2018-12-10T05:54:05.848Z,97.60
2018-12-10T05:56:55.068Z,101.25
2018-12-10T05:59:44.705Z,102.07
2018-12-10T06:02:34.051Z,103.53
2018-12-10T06:05:25.126Z,105.05
2018-12-10T06:08:14.308Z,102.05
2018-12-10T06:11:03.542Z,101.58
2018-12-10T06:13:52.459Z,103.70
2018-12-10T06:16:42.725Z,102.60
2018-12-10T06:19:30.151Z,100.85
2018-12-10T06:22:22.701Z,103.05
2018-12-10T06:25:14.403Z,105.00
2018-12-10T06:28:04.272Z,102.72
2018-12-10T06:30:53.474Z,97.57
2018-12-10T06:33:42.177Z,99.05
2018-12-10T06:36:31.329Z,100.75
2018-12-10T06:39:19.797Z,97.17
2018-12-10T06:42:08.912Z,98.42
2018-12-10T06:44:57.395Z,94.22
2018-12-10T06:47:46.558Z,94.28
2018-12-10T06:50:35.737Z,93.25
2018-12-10T06:53:25.819Z,89.52
2018-12-10T06:56:15.875Z,88.45
2018-12-10T06:59:05.292Z,87.12
2018-12-10T07:01:55.774Z,85.38
2018-12-10T07:04:49.964Z,87.05
2018-12-10T07:07:45.392Z,83.55
2018-12-10T07:10:38.216Z,87.60
2018-12-10T07:13:27.327Z,85.70
2018-12-10T07:16:16.761Z,80.10
2018-12-10T07:19:05.121Z,83.05
2018-12-10T07:21:55.857Z,83.62
2018-12-10T07:24:45.171Z,80.95
2018-12-10T07:27:34.100Z,80.12
2018-12-10T07:30:23.249Z,79.80
2018-12-10T07:33:12.395Z,79.47
2018-12-10T07:36:01.981Z,79.17
2018-12-10T07:38:51.981Z,77.62
2018-12-10T07:41:41.588Z,78.75
2018-12-10T07:44:29.814Z,84.05
2018-12-10T07:47:18.622Z,78.65
2018-12-10T07:50:06.802Z,83.55
2018-12-10T07:52:55.542Z,84.75
2018-12-10T07:55:45.128Z,83.45
2018-12-10T07:58:35.839Z,81.02
2018-12-10T08:01:23.698Z,85.07
2018-12-10T08:04:12.913Z,84.50
2018-12-10T08:07:02.680Z,85.65
2018-12-10T08:09:50.628Z,87.45
2018-12-10T08:12:38.398Z,83.97
2018-12-10T08:15:26.022Z,84.32
2018-12-10T08:18:13.580Z,91.72
2018-12-10T08:21:04.209Z,85.57
2018-12-10T08:23:53.711Z,90.17
2018-12-10T08:26:44.690Z,90.12
2018-12-10T08:29:35.452Z,89.50
2018-12-10T08:32:23.859Z,91.80
2018-12-10T08:35:12.078Z,92.47
2018-12-10T08:38:01.497Z,94.83
2018-12-10T08:40:50.920Z,93.70
2018-12-10T08:43:38.782Z,92.27
2018-12-10T08:46:26.918Z,99.13
2018-12-10T08:49:15.289Z,100.30
2018-12-10T08:52:02.997Z,99.10
2018-12-10T08:54:52.169Z,102.75
2018-12-10T08:57:40.597Z,103.42
2018-12-10T09:00:29.160Z,104.27
2018-12-10T09:03:17.159Z,105.35
2018-12-10T09:06:05.722Z,107.90
2018-12-10T09:08:54.846Z,110.97
2018-12-10T09:11:43.391Z,113.28
2018-12-10T09:14:31.916Z,113.32
2018-12-10T09:17:21.053Z,111.40
2018-12-10T09:20:09.752Z,110.05
2018-12-10T09:22:58.499Z,109.78
2018-12-10T09:25:48.165Z,114.72
2018-12-10T09:28:37.992Z,109.92
2018-12-10T09:31:28.006Z,108.90
2018-12-10T09:34:17.072Z,105.47
2018-12-10T09:37:05.408Z,106.80
2018-12-10T09:39:54.791Z,106.17
2018-12-10T09:42:46.477Z,104.25
2018-12-10T09:45:35.824Z,102.15
2018-12-10T09:48:24.398Z,103.32
2018-12-10T09:54:09.453Z,101.72
2018-12-10T09:56:58.141Z,99.65
2018-12-10T09:59:48.205Z,95.72
2018-12-10T10:02:39.513Z,96.53
2018-12-10T10:05:28.628Z,96.35
2018-12-10T10:08:16.690Z,93.50
2018-12-10T10:11:05.493Z,89.28
2018-12-10T10:13:53.841Z,91.57
2018-12-10T10:16:47.703Z,88.72
2018-12-10T10:19:36.286Z,83.67
2018-12-10T10:22:24.726Z,86.63
2018-12-10T10:25:12.894Z,85.72
2018-12-10T10:28:02.356Z,80.80
2018-12-10T10:30:53.999Z,79.17
2018-12-10T10:33:44.552Z,79.00
2018-12-10T10:36:34.918Z,77.55
2018-12-10T10:39:23.670Z,74.40
2018-12-10T10:42:11.934Z,75.87
2018-12-10T10:45:06.074Z,74.85
2018-12-10T10:47:55.141Z,73.00
2018-12-10T10:50:43.479Z,75.12
2018-12-10T10:53:34.033Z,71.57
2018-12-10T10:56:29.309Z,68.42
2018-12-10T10:59:25.535Z,67.65
2018-12-10T11:02:18.696Z,64.32
2018-12-10T11:05:08.475Z,65.92
2018-12-10T11:07:57.270Z,65.60
2018-12-10T11:10:47.944Z,64.30
2018-12-10T11:13:38.021Z,64.87
2018-12-10T11:16:26.982Z,66.25
2018-12-10T11:19:16.589Z,59.45
2018-12-10T11:22:06.640Z,62.93
2018-12-10T11:24:56.408Z,59.95
2018-12-10T11:27:49.238Z,62.53
2018-12-10T11:30:38.982Z,59.13
2018-12-10T11:33:27.218Z,57.83
2018-12-10T11:36:15.280Z,56.68
2018-12-10T11:39:03.700Z,57.10
2018-12-10T11:41:53.466Z,56.77
2018-12-10T11:44:42.516Z,56.90
2018-12-10T11:47:32.283Z,54.23
2018-12-10T11:50:23.729Z,56.25
2018-12-10T11:53:17.067Z,53.75
2018-12-10T11:56:09.243Z,55.55
2018-12-10T11:59:00.037Z,54.33
2018-12-10T12:01:51.577Z,52.88
2018-12-10T12:04:41.537Z,53.17
2018-12-10T12:07:33.192Z,51.23
2018-12-10T12:10:24.294Z,52.85
2018-12-10T12:13:15.641Z,50.55
2018-12-10T12:16:05.267Z,51.20
2018-12-10T12:18:54.292Z,51.15
2018-12-10T12:21:43.647Z,51.33
2018-12-10T12:24:32.857Z,51.60
2018-12-10T12:27:24.035Z,52.83
2018-12-10T12:30:13.121Z,49.77
2018-12-10T12:33:01.698Z,51.55
2018-12-10T12:35:49.528Z,49.10
2018-12-10T12:38:38.229Z,50.23
2018-12-10T12:41:25.785Z,49.53
2018-12-10T12:44:13.629Z,49.40
2018-12-10T12:47:01.895Z,48.80
2018-12-10T12:49:49.802Z,50.20
2018-12-10T12:52:39.099Z,49.58
2018-12-10T12:55:27.463Z,50.08
2018-12-10T12:58:15.663Z,48.83
2018-12-10T13:01:05.518Z,50.45
2018-12-10T13:03:55.448Z,51.00
2018-12-10T13:06:44.298Z,52.17
2018-12-10T13:09:32.592Z,52.08
2018-12-10T13:12:20.917Z,51.80
2018-12-10T13:15:10.240Z,52.27
2018-12-10T13:17:59.127Z,51.77
2018-12-10T13:20:48.032Z,50.58
2018-12-10T13:23:38.809Z,51.50
2018-12-10T13:26:27.355Z,52.53
2018-12-10T13:29:15.307Z,53.48
2018-12-10T13:32:04.065Z,52.48
2018-12-10T13:34:52.028Z,54.88
2018-12-10T13:37:40.072Z,51.42
2018-12-10T13:40:28.499Z,55.12
2018-12-10T13:43:16.135Z,52.08
2018-12-10T13:46:03.895Z,53.28
2018-12-10T13:48:52.632Z,54.55
2018-12-10T13:51:41.208Z,54.63
2018-12-10T13:54:29.937Z,53.05
2018-12-10T13:57:17.454Z,55.12
2018-12-10T14:00:06.047Z,53.75
2018-12-10T14:02:54.887Z,57.13
2018-12-10T14:05:47.553Z,53.92
2018-12-10T14:08:35.637Z,55.12
2018-12-10T14:11:24.051Z,56.95
2018-12-10T14:14:12.821Z,56.08
2018-12-10T14:17:01.861Z,56.13
2018-12-10T14:19:50.416Z,54.42
2018-12-10T14:22:39.490Z,57.23
2018-12-10T14:25:30.854Z,60.35
2018-12-10T14:28:19.481Z,61.20
2018-12-10T14:31:09.895Z,60.92
2018-12-10T14:34:06.565Z,59.10
2018-12-10T14:36:56.517Z,61.05
2018-12-10T14:39:45.150Z,61.95
2018-12-10T14:42:33.537Z,66.28
2018-12-10T14:45:22.031Z,63.52
2018-12-10T14:48:10.452Z,61.23
2018-12-10T14:50:58.924Z,63.45
2018-12-10T14:53:47.141Z,65.47
2018-12-10T14:56:35.544Z,67.85
2018-12-10T14:59:23.500Z,70.97
2018-12-10T15:02:11.988Z,64.05
2018-12-10T15:05:00.098Z,63.80
2018-12-10T15:07:48.239Z,69.62
2018-12-10T15:10:37.290Z,66.53
2018-12-10T15:13:26.800Z,68.17
2018-12-10T15:16:15.797Z,68.60
2018-12-10T15:19:04.638Z,67.30
2018-12-10T15:21:52.670Z,67.32
2018-12-10T15:24:41.851Z,67.78
2018-12-10T15:27:30.406Z,66.20
2018-12-10T15:30:18.611Z,64.72
2018-12-10T15:33:06.692Z,66.00
2018-12-10T15:35:56.199Z,64.77
2018-12-10T15:38:44.391Z,63.50
2018-12-10T15:41:34.916Z,64.62
2018-12-10T15:44:26.184Z,64.82
2018-12-10T15:47:15.003Z,67.00
2018-12-10T15:50:03.910Z,65.17
2018-12-10T15:52:52.988Z,66.00
2018-12-10T15:55:41.802Z,67.20
2018-12-10T15:58:30.970Z,66.33
2018-12-10T16:01:19.628Z,68.70
2018-12-10T16:04:09.766Z,67.87
2018-12-10T16:06:58.593Z,65.47
2018-12-10T16:09:48.223Z,63.33
2018-12-10T16:12:37.370Z,65.83
2018-12-10T16:15:26.805Z,66.45
2018-12-10T16:18:15.231Z,68.42
2018-12-10T16:21:04.571Z,67.87
2018-12-10T16:23:53.559Z,68.62
2018-12-10T16:26:42.099Z,67.97
2018-12-10T16:29:31.194Z,66.42
2018-12-10T16:32:19.976Z,68.35
2018-12-10T16:35:10.256Z,66.22
2018-12-10T16:37:58.866Z,68.42
2018-12-10T16:40:47.680Z,67.65
2018-12-10T16:43:36.429Z,68.47
2018-12-10T16:46:26.052Z,68.07
2018-12-10T16:49:14.742Z,68.00
2018-12-10T16:52:04.234Z,67.00
2018-12-10T16:54:52.771Z,67.82
2018-12-10T16:57:43.967Z,66.65
2018-12-10T17:00:32.686Z,67.12
2018-12-10T17:03:21.707Z,65.28
2018-12-10T17:06:12.067Z,69.60
2018-12-10T17:09:01.208Z,67.08
2018-12-10T17:11:50.702Z,67.70
2018-12-10T17:14:42.756Z,68.57
2018-12-10T17:17:34.994Z,65.72
2018-12-10T17:20:25.582Z,68.35
2018-12-10T17:23:15.166Z,68.52
2018-12-10T17:26:04.204Z,64.80
2018-12-10T17:28:53.267Z,66.33
2018-12-10T17:31:41.954Z,67.90
2018-12-10T17:34:31.205Z,67.30
2018-12-10T17:37:21.355Z,68.15
2018-12-10T17:40:11.217Z,65.92
2018-12-10T17:42:59.752Z,68.57
2018-12-10T17:45:48.570Z,68.02
2018-12-10T17:48:37.716Z,68.25
2018-12-10T17:51:26.301Z,67.87
2018-12-10T17:54:15.546Z,67.20
2018-12-10T17:57:04.326Z,65.87
2018-12-10T17:59:55.034Z,70.32
2018-12-10T18:02:44.574Z,68.45
2018-12-10T18:05:33.988Z,67.92
2018-12-10T18:08:23.970Z,67.25
2018-12-10T18:11:12.394Z,67.58
2018-12-10T18:14:02.307Z,65.95
2018-12-10T18:16:51.291Z,65.97
2018-12-10T18:19:40.763Z,67.42
2018-12-10T18:22:29.895Z,67.85
2018-12-10T18:25:18.561Z,67.62
2018-12-10T18:28:07.628Z,65.75
2018-12-10T18:30:57.223Z,64.47
2018-12-10T18:33:45.540Z,65.22
2018-12-10T18:36:35.252Z,68.05
2018-12-10T18:39:24.367Z,67.20
2018-12-10T18:42:13.419Z,67.50
2018-12-10T18:45:02.107Z,68.78
2018-12-10T18:47:51.028Z,71.42
2018-12-10T18:50:41.466Z,69.15
2018-12-10T18:53:29.744Z,68.55
2018-12-10T18:56:18.321Z,65.15
2018-12-10T18:59:07.326Z,67.78
2018-12-10T19:01:57.793Z,76.60
2018-12-10T19:04:46.171Z,77.58
2018-12-10T19:07:35.866Z,75.42
2018-12-10T19:10:25.023Z,78.70
2018-12-10T19:13:13.956Z,79.70
2018-12-10T19:16:03.012Z,79.75
2018-12-10T19:18:51.806Z,77.37
2018-12-10T19:21:41.127Z,78.67
2018-12-10T19:24:30.134Z,78.45
2018-12-10T19:27:18.400Z,79.05
2018-12-10T19:30:08.538Z,79.17
2018-12-10T19:32:57.377Z,81.57
2018-12-10T19:35:46.518Z,82.37
2018-12-10T19:38:35.231Z,87.00
2018-12-10T19:41:24.095Z,83.92
2018-12-10T19:44:13.687Z,88.05
2018-12-10T19:47:03.050Z,90.10
2018-12-10T19:49:53.009Z,89.55
2018-12-10T19:52:42.315Z,89.47
2018-12-10T19:55:31.511Z,90.25
2018-12-10T19:58:20.084Z,90.30
2018-12-10T20:01:09.014Z,88.52
2018-12-10T20:03:57.812Z,94.25
2018-12-10T20:06:51.093Z,95.50
2018-12-10T20:09:41.993Z,95.07
2018-12-10T20:12:30.981Z,92.75
2018-12-10T20:15:20.107Z,93.82
2018-12-10T20:18:08.173Z,96.12
2018-12-10T20:20:57.511Z,92.88
2018-12-10T20:23:46.032Z,98.85
2018-12-10T20:26:35.790Z,100.12
2018-12-10T20:29:24.723Z,100.33
2018-12-10T20:32:13.679Z,100.15
2018-12-10T20:35:02.943Z,101.02
2018-12-10T20:37:51.412Z,102.38
2018-12-10T20:40:40.791Z,104.95
2018-12-10T20:43:30.574Z,103.87
2018-12-10T20:46:19.274Z,102.27
2018-12-10T20:49:08.012Z,105.12
2018-12-10T20:51:56.830Z,104.25
2018-12-10T20:54:45.327Z,105.25
2018-12-10T20:57:33.888Z,106.32
2018-12-10T21:00:22.572Z,104.43
2018-12-10T21:03:11.113Z,102.58
2018-12-10T21:06:04.105Z,101.90
2018-12-10T21:08:52.674Z,104.30
2018-12-10T21:11:42.498Z,106.47
2018-12-10T21:14:31.324Z,103.62
2018-12-10T21:17:19.941Z,105.17
2018-12-10T21:20:10.220Z,103.55
2018-12-10T21:22:59.650Z,103.17
2018-12-10T21:25:48.590Z,105.03
2018-12-10T21:28:37.996Z,103.02
2018-12-10T21:31:29.451Z,102.65
2018-12-10T21:34:21.203Z,102.62
2018-12-10T21:37:10.108Z,101.00
2018-12-10T21:39:58.743Z,103.40
2018-12-10T21:42:46.657Z,102.45
2018-12-10T21:45:35.694Z,103.10
2018-12-10T21:48:25.033Z,104.87
2018-12-10T21:51:15.137Z,103.00
2018-12-10T21:54:03.673Z,100.75
2018-12-10T21:56:52.528Z,99.67
2018-12-10T21:59:43.635Z,101.72
2018-12-10T22:02:32.709Z,100.72
2018-12-10T22:05:22.465Z,97.62
2018-12-10T22:08:11.510Z,99.07
2018-12-10T22:11:00.283Z,100.80
2018-12-10T22:13:48.692Z,101.22
2018-12-10T22:16:38.072Z,98.85
2018-12-10T22:19:26.633Z,100.42
2018-12-10T22:22:15.623Z,98.62
2018-12-10T22:25:04.433Z,96.30
2018-12-10T22:27:53.696Z,95.57
2018-12-10T22:30:42.281Z,97.20
2018-12-10T22:33:32.701Z,95.70
2018-12-10T22:36:21.479Z,91.75
2018-12-10T22:39:11.686Z,92.80
2018-12-10T22:42:00.231Z,90.00
2018-12-10T22:44:48.535Z,92.65
2018-12-10T22:47:37.594Z,92.10
2018-12-10T22:50:26.625Z,89.25
2018-12-10T22:53:15.511Z,85.70
2018-12-10T22:56:06.624Z,93.78
2018-12-10T22:58:54.717Z,96.00
2018-12-10T23:01:43.493Z,104.75
2018-12-10T23:04:31.993Z,101.20
2018-12-10T23:07:20.936Z,102.05
2018-12-10T23:10:09.883Z,103.50
2018-12-10T23:13:02.325Z,105.32
2018-12-10T23:15:50.709Z,105.45
2018-12-10T23:18:40.340Z,100.82
2018-12-10T23:21:28.512Z,100.87
2018-12-10T23:24:18.230Z,105.43
2018-12-10T23:27:07.421Z,105.75
2018-12-10T23:29:56.888Z,103.45
2018-12-10T23:32:46.083Z,102.75
2018-12-10T23:35:35.194Z,107.87
2018-12-10T23:38:24.562Z,103.47
2018-12-10T23:41:13.557Z,111.28
2018-12-10T23:44:01.721Z,106.27
2018-12-10T23:46:50.806Z,105.17
2018-12-10T23:49:39.748Z,106.20
2018-12-10T23:52:28.347Z,107.05
2018-12-10T23:55:17.323Z,109.63
2018-12-10T23:58:07.604Z,110.55
